sensor_id;sensor_type;location;lat;lon;timestamp;temperature;humidity
20432;DHT22;10375;49.136;10.366;2023-04-05T00:00:00;-1.60;99.90
20432;DHT22;10375;49.136;10.366;2023-04-05T00:02:27;-1.70;99.90
20432;DHT22;10375;49.136;10.366;2023-04-05T00:04:56;-1.70;99.90
20432;DHT22;10375;49.136;10.366;2023-04-05T00:07:23;-1.80;99.90
20432;DHT22;10375;49.136;10.366;2023-04-05T00:09:52;-1.70;99.90
20432;DHT22;10375;49.136;10.366;2023-04-05T00:12:19;-1.70;99.90
20432;DHT22;10375;49.136;10.366;2023-04-05T00:14:46;-1.70;99.90
20432;DHT22;10375;49.136;10.366;2023-04-05T00:17:14;-1.70;99.90
20432;DHT22;10375;49.136;10.366;2023-04-05T00:19:41;-1.70;99.90
20432;DHT22;10375;49.136;10.366;2023-04-05T00:22:08;-1.70;99.90
20432;DHT22;10375;49.136;10.366;2023-04-05T00:24:37;-1.80;99.90
20432;DHT22;10375;49.136;10.366;2023-04-05T00:27:04;-1.80;99.90
20432;DHT22;10375;49.136;10.366;2023-04-05T00:29:31;-1.80;99.90
20432;DHT22;10375;49.136;10.366;2023-04-05T00:31:58;-1.80;99.90
20432;DHT22;10375;49.136;10.366;2023-04-05T00:34:26;-1.80;99.90
20432;DHT22;10375;49.136;10.366;2023-04-05T00:36:53;-1.90;99.90
20432;DHT22;10375;49.136;10.366;2023-04-05T00:39:20;-1.90;99.90
20432;DHT22;10375;49.136;10.366;2023-04-05T00:41:47;-2.00;99.90
20432;DHT22;10375;49.136;10.366;2023-04-05T00:44:14;-2.00;99.90
20432;DHT22;10375;49.136;10.366;2023-04-05T00:46:41;-1.90;99.90
20432;DHT22;10375;49.136;10.366;2023-04-05T00:49:08;-2.00;99.90
20432;DHT22;10375;49.136;10.366;2023-04-05T00:51:36;-2.00;99.90
20432;DHT22;10375;49.136;10.366;2023-04-05T00:54:04;-2.00;99.90
20432;DHT22;10375;49.136;10.366;2023-04-05T00:56:32;-2.10;99.90
20432;DHT22;10375;49.136;10.366;2023-04-05T00:58:59;-2.10;99.90
20432;DHT22;10375;49.136;10.366;2023-04-05T01:01:26;-2.20;99.90
20432;DHT22;10375;49.136;10.366;2023-04-05T01:03:58;-2.20;99.90
20432;DHT22;10375;49.136;10.366;2023-04-05T01:09:55;-2.20;99.90
20432;DHT22;10375;49.136;10.366;2023-04-05T01:12:27;-2.30;99.90
20432;DHT22;10375;49.136;10.366;2023-04-05T01:14:55;-2.30;99.90
20432;DHT22;10375;49.136;10.366;2023-04-05T01:17:24;-2.10;99.90
20432;DHT22;10375;49.136;10.366;2023-04-05T01:19:58;-2.10;99.90
20432;DHT22;10375;49.136;10.366;2023-04-05T01:25:43;-2.20;99.90
20432;DHT22;10375;49.136;10.366;2023-04-05T01:28:22;-2.20;99.90
20432;DHT22;10375;49.136;10.366;2023-04-05T01:36:41;-2.40;99.90
20432;DHT22;10375;49.136;10.366;2023-04-05T01:39:12;-2.30;99.90
20432;DHT22;10375;49.136;10.366;2023-04-05T01:41:40;-2.40;99.90
20432;DHT22;10375;49.136;10.366;2023-04-05T01:44:07;-2.50;99.90
20432;DHT22;10375;49.136;10.366;2023-04-05T01:46:34;-2.60;99.90
20432;DHT22;10375;49.136;10.366;2023-04-05T01:49:02;-2.60;99.90
20432;DHT22;10375;49.136;10.366;2023-04-05T01:51:29;-2.70;99.90
20432;DHT22;10375;49.136;10.366;2023-04-05T01:53:58;-2.70;99.90
20432;DHT22;10375;49.136;10.366;2023-04-05T01:56:26;-2.60;99.90
20432;DHT22;10375;49.136;10.366;2023-04-05T01:58:53;-2.70;99.90
20432;DHT22;10375;49.136;10.366;2023-04-05T02:01:20;-2.80;99.90
20432;DHT22;10375;49.136;10.366;2023-04-05T02:03:47;-2.80;99.90
20432;DHT22;10375;49.136;10.366;2023-04-05T02:06:14;-2.80;99.90
20432;DHT22;10375;49.136;10.366;2023-04-05T02:08:42;-2.80;99.90
20432;DHT22;10375;49.136;10.366;2023-04-05T02:11:09;-2.90;99.90
20432;DHT22;10375;49.136;10.366;2023-04-05T02:13:36;-2.90;99.90
20432;DHT22;10375;49.136;10.366;2023-04-05T02:16:03;-3.00;99.90
20432;DHT22;10375;49.136;10.366;2023-04-05T02:18:30;-3.00;99.90
20432;DHT22;10375;49.136;10.366;2023-04-05T02:21:05;-2.90;99.90
20432;DHT22;10375;49.136;10.366;2023-04-05T02:23:33;-2.90;99.90
20432;DHT22;10375;49.136;10.366;2023-04-05T02:26:01;-2.90;99.90
20432;DHT22;10375;49.136;10.366;2023-04-05T02:28:28;-2.90;99.90
20432;DHT22;10375;49.136;10.366;2023-04-05T02:30:55;-3.00;99.90
20432;DHT22;10375;49.136;10.366;2023-04-05T02:33:22;-3.00;99.90
20432;DHT22;10375;49.136;10.366;2023-04-05T02:35:51;-3.00;99.90
20432;DHT22;10375;49.136;10.366;2023-04-05T02:38:18;-3.00;99.90
20432;DHT22;10375;49.136;10.366;2023-04-05T02:40:47;-3.00;99.90
20432;DHT22;10375;49.136;10.366;2023-04-05T02:43:14;-3.10;99.90
20432;DHT22;10375;49.136;10.366;2023-04-05T02:45:42;-3.10;99.90
20432;DHT22;10375;49.136;10.366;2023-04-05T02:48:12;-3.10;99.90
20432;DHT22;10375;49.136;10.366;2023-04-05T02:50:39;-3.10;99.90
20432;DHT22;10375;49.136;10.366;2023-04-05T02:53:07;-3.10;99.90
20432;DHT22;10375;49.136;10.366;2023-04-05T02:55:34;-3.10;99.90
20432;DHT22;10375;49.136;10.366;2023-04-05T02:58:01;-3.10;99.90
20432;DHT22;10375;49.136;10.366;2023-04-05T03:00:28;-3.10;99.90
20432;DHT22;10375;49.136;10.366;2023-04-05T03:02:55;-3.10;99.90
20432;DHT22;10375;49.136;10.366;2023-04-05T03:05:22;-3.10;99.90
20432;DHT22;10375;49.136;10.366;2023-04-05T03:07:49;-3.20;99.90
20432;DHT22;10375;49.136;10.366;2023-04-05T03:10:20;-3.20;99.90
20432;DHT22;10375;49.136;10.366;2023-04-05T03:12:48;-3.10;99.90
20432;DHT22;10375;49.136;10.366;2023-04-05T03:15:17;-3.00;99.90
20432;DHT22;10375;49.136;10.366;2023-04-05T03:17:44;-3.00;99.90
20432;DHT22;10375;49.136;10.366;2023-04-05T03:20:12;-3.10;99.90
20432;DHT22;10375;49.136;10.366;2023-04-05T03:22:39;-3.20;99.90
20432;DHT22;10375;49.136;10.366;2023-04-05T03:25:07;-3.30;99.90
20432;DHT22;10375;49.136;10.366;2023-04-05T03:27:34;-3.30;99.90
20432;DHT22;10375;49.136;10.366;2023-04-05T03:30:02;-3.40;99.90
20432;DHT22;10375;49.136;10.366;2023-04-05T03:32:29;-3.40;99.90
20432;DHT22;10375;49.136;10.366;2023-04-05T03:34:57;-3.30;99.90
20432;DHT22;10375;49.136;10.366;2023-04-05T03:37:24;-3.30;99.90
20432;DHT22;10375;49.136;10.366;2023-04-05T03:39:51;-3.40;99.90
20432;DHT22;10375;49.136;10.366;2023-04-05T03:42:18;-3.40;99.90
20432;DHT22;10375;49.136;10.366;2023-04-05T03:44:45;-3.40;99.90
20432;DHT22;10375;49.136;10.366;2023-04-05T03:47:13;-3.50;99.90
20432;DHT22;10375;49.136;10.366;2023-04-05T03:49:40;-3.50;99.90
20432;DHT22;10375;49.136;10.366;2023-04-05T03:52:07;-3.50;99.90
20432;DHT22;10375;49.136;10.366;2023-04-05T03:54:35;-3.50;99.90
20432;DHT22;10375;49.136;10.366;2023-04-05T03:57:02;-3.50;99.90
20432;DHT22;10375;49.136;10.366;2023-04-05T03:59:29;-3.40;99.90
20432;DHT22;10375;49.136;10.366;2023-04-05T04:01:56;-3.50;99.90
20432;DHT22;10375;49.136;10.366;2023-04-05T04:04:24;-3.50;99.90
20432;DHT22;10375;49.136;10.366;2023-04-05T04:06:51;-3.50;99.90
20432;DHT22;10375;49.136;10.366;2023-04-05T04:09:18;-3.50;99.90
20432;DHT22;10375;49.136;10.366;2023-04-05T04:11:45;-3.50;99.90
20432;DHT22;10375;49.136;10.366;2023-04-05T04:14:12;-3.50;99.90
20432;DHT22;10375;49.136;10.366;2023-04-05T04:16:39;-3.50;99.90
20432;DHT22;10375;49.136;10.366;2023-04-05T04:19:06;-3.50;99.90
20432;DHT22;10375;49.136;10.366;2023-04-05T04:21:33;-3.50;99.90
20432;DHT22;10375;49.136;10.366;2023-04-05T04:24:01;-3.50;99.90
20432;DHT22;10375;49.136;10.366;2023-04-05T04:26:28;-3.60;99.90
20432;DHT22;10375;49.136;10.366;2023-04-05T04:28:55;-3.70;99.90
20432;DHT22;10375;49.136;10.366;2023-04-05T04:31:22;-3.70;99.90
20432;DHT22;10375;49.136;10.366;2023-04-05T04:33:50;-3.80;99.90
20432;DHT22;10375;49.136;10.366;2023-04-05T04:36:17;-3.70;99.90
20432;DHT22;10375;49.136;10.366;2023-04-05T04:39:01;-3.70;99.90
20432;DHT22;10375;49.136;10.366;2023-04-05T04:41:31;-3.60;99.90
20432;DHT22;10375;49.136;10.366;2023-04-05T04:44:02;-3.60;99.90
20432;DHT22;10375;49.136;10.366;2023-04-05T04:46:38;-3.70;99.90
20432;DHT22;10375;49.136;10.366;2023-04-05T04:49:09;-3.70;99.90
20432;DHT22;10375;49.136;10.366;2023-04-05T04:51:37;-3.90;99.90
20432;DHT22;10375;49.136;10.366;2023-04-05T04:54:05;-3.90;99.90
20432;DHT22;10375;49.136;10.366;2023-04-05T04:56:33;-3.90;99.90
20432;DHT22;10375;49.136;10.366;2023-04-05T04:59:00;-3.90;99.90
20432;DHT22;10375;49.136;10.366;2023-04-05T05:01:28;-3.90;99.90
20432;DHT22;10375;49.136;10.366;2023-04-05T05:03:56;-3.90;99.90
20432;DHT22;10375;49.136;10.366;2023-04-05T05:06:23;-3.80;99.90
20432;DHT22;10375;49.136;10.366;2023-04-05T05:08:50;-3.70;99.90
20432;DHT22;10375;49.136;10.366;2023-04-05T05:11:18;-3.60;99.90
20432;DHT22;10375;49.136;10.366;2023-04-05T05:13:45;-3.60;99.90
20432;DHT22;10375;49.136;10.366;2023-04-05T05:16:17;-3.60;99.90
20432;DHT22;10375;49.136;10.366;2023-04-05T05:18:48;-3.60;99.90
20432;DHT22;10375;49.136;10.366;2023-04-05T05:21:17;-3.70;99.90
20432;DHT22;10375;49.136;10.366;2023-04-05T05:23:44;-3.70;99.90
20432;DHT22;10375;49.136;10.366;2023-04-05T05:26:13;-3.60;99.90
20432;DHT22;10375;49.136;10.366;2023-04-05T05:28:40;-3.50;99.90
20432;DHT22;10375;49.136;10.366;2023-04-05T05:31:08;-3.40;99.90
20432;DHT22;10375;49.136;10.366;2023-04-05T05:33:36;-3.30;99.90
20432;DHT22;10375;49.136;10.366;2023-04-05T05:36:07;-3.20;99.90
20432;DHT22;10375;49.136;10.366;2023-04-05T05:38:35;-3.10;99.90
20432;DHT22;10375;49.136;10.366;2023-04-05T05:41:02;-2.90;99.90
20432;DHT22;10375;49.136;10.366;2023-04-05T05:43:32;-2.90;99.90
20432;DHT22;10375;49.136;10.366;2023-04-05T05:46:01;-2.80;99.90
20432;DHT22;10375;49.136;10.366;2023-04-05T05:48:28;-2.70;99.90
20432;DHT22;10375;49.136;10.366;2023-04-05T05:50:57;-2.60;99.90
20432;DHT22;10375;49.136;10.366;2023-04-05T05:53:27;-1.10;99.90
20432;DHT22;10375;49.136;10.366;2023-04-05T05:55:58;2.10;99.90
20432;DHT22;10375;49.136;10.366;2023-04-05T05:58:26;5.20;99.90
20432;DHT22;10375;49.136;10.366;2023-04-05T06:00:55;7.40;99.90
20432;DHT22;10375;49.136;10.366;2023-04-05T06:03:26;9.20;99.90
20432;DHT22;10375;49.136;10.366;2023-04-05T06:05:57;10.60;96.30
20432;DHT22;10375;49.136;10.366;2023-04-05T06:08:27;11.70;94.10
20432;DHT22;10375;49.136;10.366;2023-04-05T06:10:58;12.60;90.60
20432;DHT22;10375;49.136;10.366;2023-04-05T06:13:26;13.40;85.80
20432;DHT22;10375;49.136;10.366;2023-04-05T06:15:53;14.10;83.00
20432;DHT22;10375;49.136;10.366;2023-04-05T06:18:21;14.70;76.00
20432;DHT22;10375;49.136;10.366;2023-04-05T06:20:48;15.10;74.20
20432;DHT22;10375;49.136;10.366;2023-04-05T06:23:16;15.50;72.00
20432;DHT22;10375;49.136;10.366;2023-04-05T06:25:43;15.80;70.40
20432;DHT22;10375;49.136;10.366;2023-04-05T06:28:11;16.10;68.70
20432;DHT22;10375;49.136;10.366;2023-04-05T06:30:38;16.30;67.80
20432;DHT22;10375;49.136;10.366;2023-04-05T06:33:06;16.70;66.60
20432;DHT22;10375;49.136;10.366;2023-04-05T06:35:33;17.20;63.80
20432;DHT22;10375;49.136;10.366;2023-04-05T06:38:01;17.20;63.50
20432;DHT22;10375;49.136;10.366;2023-04-05T06:40:28;17.50;62.90
20432;DHT22;10375;49.136;10.366;2023-04-05T06:42:55;17.90;61.10
20432;DHT22;10375;49.136;10.366;2023-04-05T06:45:23;18.30;59.90
20432;DHT22;10375;49.136;10.366;2023-04-05T06:47:50;18.20;60.10
20432;DHT22;10375;49.136;10.366;2023-04-05T06:50:17;18.40;59.70
20432;DHT22;10375;49.136;10.366;2023-04-05T06:52:44;18.70;58.80
20432;DHT22;10375;49.136;10.366;2023-04-05T06:55:11;19.00;58.70
20432;DHT22;10375;49.136;10.366;2023-04-05T06:57:38;19.00;57.70
20432;DHT22;10375;49.136;10.366;2023-04-05T07:00:06;19.10;57.10
20432;DHT22;10375;49.136;10.366;2023-04-05T07:02:38;18.60;58.00
20432;DHT22;10375;49.136;10.366;2023-04-05T07:05:05;18.60;58.80
20432;DHT22;10375;49.136;10.366;2023-04-05T07:07:32;18.30;57.80
20432;DHT22;10375;49.136;10.366;2023-04-05T07:10:00;18.50;59.30
20432;DHT22;10375;49.136;10.366;2023-04-05T07:12:27;18.60;58.00
20432;DHT22;10375;49.136;10.366;2023-04-05T07:14:54;18.60;59.00
20432;DHT22;10375;49.136;10.366;2023-04-05T07:17:21;18.30;59.00
20432;DHT22;10375;49.136;10.366;2023-04-05T07:19:48;18.20;58.20
20432;DHT22;10375;49.136;10.366;2023-04-05T07:22:15;18.50;59.70
20432;DHT22;10375;49.136;10.366;2023-04-05T07:24:46;18.50;57.50
20432;DHT22;10375;49.136;10.366;2023-04-05T07:27:14;17.80;56.10
20432;DHT22;10375;49.136;10.366;2023-04-05T07:29:41;17.00;59.40
20432;DHT22;10375;49.136;10.366;2023-04-05T07:32:11;16.30;58.80
20432;DHT22;10375;49.136;10.366;2023-04-05T07:34:38;15.60;59.50
20432;DHT22;10375;49.136;10.366;2023-04-05T07:37:05;15.10;60.60
20432;DHT22;10375;49.136;10.366;2023-04-05T07:39:32;14.20;60.90
20432;DHT22;10375;49.136;10.366;2023-04-05T07:41:59;13.70;64.10
20432;DHT22;10375;49.136;10.366;2023-04-05T07:44:26;14.10;63.20
20432;DHT22;10375;49.136;10.366;2023-04-05T07:46:53;14.10;60.00
20432;DHT22;10375;49.136;10.366;2023-04-05T07:49:25;14.10;65.10
20432;DHT22;10375;49.136;10.366;2023-04-05T07:51:56;14.30;63.90
20432;DHT22;10375;49.136;10.366;2023-04-05T07:54:23;13.60;61.00
20432;DHT22;10375;49.136;10.366;2023-04-05T07:56:50;13.20;61.80
20432;DHT22;10375;49.136;10.366;2023-04-05T07:59:17;12.30;63.80
20432;DHT22;10375;49.136;10.366;2023-04-05T08:01:44;11.70;66.60
20432;DHT22;10375;49.136;10.366;2023-04-05T08:04:11;10.80;67.20
20432;DHT22;10375;49.136;10.366;2023-04-05T08:06:38;10.40;67.80
20432;DHT22;10375;49.136;10.366;2023-04-05T08:09:06;10.00;71.20
20432;DHT22;10375;49.136;10.366;2023-04-05T08:11:34;9.50;70.00
20432;DHT22;10375;49.136;10.366;2023-04-05T08:14:02;8.70;73.00
20432;DHT22;10375;49.136;10.366;2023-04-05T08:16:29;8.20;74.30
20432;DHT22;10375;49.136;10.366;2023-04-05T08:18:56;8.30;77.60
20432;DHT22;10375;49.136;10.366;2023-04-05T08:21:23;8.30;77.30
20432;DHT22;10375;49.136;10.366;2023-04-05T08:23:50;8.00;76.10
20432;DHT22;10375;49.136;10.366;2023-04-05T08:26:17;7.70;78.00
20432;DHT22;10375;49.136;10.366;2023-04-05T08:28:44;8.00;83.30
20432;DHT22;10375;49.136;10.366;2023-04-05T08:31:11;8.20;75.00
20432;DHT22;10375;49.136;10.366;2023-04-05T08:33:39;8.40;77.60
20432;DHT22;10375;49.136;10.366;2023-04-05T08:36:07;8.70;79.20
20432;DHT22;10375;49.136;10.366;2023-04-05T08:38:35;9.00;78.20
20432;DHT22;10375;49.136;10.366;2023-04-05T08:41:16;8.90;73.70
20432;DHT22;10375;49.136;10.366;2023-04-05T08:44:02;8.80;76.90
20432;DHT22;10375;49.136;10.366;2023-04-05T08:46:30;8.80;73.00
20432;DHT22;10375;49.136;10.366;2023-04-05T08:48:58;8.50;77.80
20432;DHT22;10375;49.136;10.366;2023-04-05T08:51:26;8.60;72.50
20432;DHT22;10375;49.136;10.366;2023-04-05T08:53:54;8.70;77.00
20432;DHT22;10375;49.136;10.366;2023-04-05T08:56:25;9.00;75.80
20432;DHT22;10375;49.136;10.366;2023-04-05T08:59:06;8.70;74.10
20432;DHT22;10375;49.136;10.366;2023-04-05T09:01:37;8.80;76.90
20432;DHT22;10375;49.136;10.366;2023-04-05T09:04:13;9.20;76.90
20432;DHT22;10375;49.136;10.366;2023-04-05T09:06:41;9.00;68.70
20432;DHT22;10375;49.136;10.366;2023-04-05T09:09:10;9.10;75.00
20432;DHT22;10375;49.136;10.366;2023-04-05T09:11:38;9.10;72.30
20432;DHT22;10375;49.136;10.366;2023-04-05T09:14:06;9.30;71.50
20432;DHT22;10375;49.136;10.366;2023-04-05T09:16:39;9.20;70.20
20432;DHT22;10375;49.136;10.366;2023-04-05T09:19:07;8.70;72.10
20432;DHT22;10375;49.136;10.366;2023-04-05T09:22:00;8.50;73.20
20432;DHT22;10375;49.136;10.366;2023-04-05T09:24:35;8.70;69.80
20432;DHT22;10375;49.136;10.366;2023-04-05T09:29:33;8.50;67.90
20432;DHT22;10375;49.136;10.366;2023-04-05T09:32:01;8.50;70.80
20432;DHT22;10375;49.136;10.366;2023-04-05T09:34:30;8.90;69.60
20432;DHT22;10375;49.136;10.366;2023-04-05T09:37:18;9.20;69.20
20432;DHT22;10375;49.136;10.366;2023-04-05T09:39:47;9.60;68.10
20432;DHT22;10375;49.136;10.366;2023-04-05T09:42:19;10.50;69.90
20432;DHT22;10375;49.136;10.366;2023-04-05T09:44:56;11.20;69.80
20432;DHT22;10375;49.136;10.366;2023-04-05T09:47:31;10.30;66.00
20432;DHT22;10375;49.136;10.366;2023-04-05T09:50:01;9.80;71.50
20432;DHT22;10375;49.136;10.366;2023-04-05T09:52:30;9.50;68.30
20432;DHT22;10375;49.136;10.366;2023-04-05T09:55:00;9.20;69.10
20432;DHT22;10375;49.136;10.366;2023-04-05T09:57:27;8.70;68.90
20432;DHT22;10375;49.136;10.366;2023-04-05T09:59:59;8.00;69.20
20432;DHT22;10375;49.136;10.366;2023-04-05T10:02:38;7.90;71.70
20432;DHT22;10375;49.136;10.366;2023-04-05T10:05:07;7.80;70.60
20432;DHT22;10375;49.136;10.366;2023-04-05T10:07:37;8.00;71.60
20432;DHT22;10375;49.136;10.366;2023-04-05T10:10:05;8.30;71.30
20432;DHT22;10375;49.136;10.366;2023-04-05T10:12:32;8.50;70.50
20432;DHT22;10375;49.136;10.366;2023-04-05T10:15:00;9.00;74.60
20432;DHT22;10375;49.136;10.366;2023-04-05T10:17:33;9.80;68.60
20432;DHT22;10375;49.136;10.366;2023-04-05T10:20:08;10.00;66.00
20432;DHT22;10375;49.136;10.366;2023-04-05T10:28:04;9.50;69.80
20432;DHT22;10375;49.136;10.366;2023-04-05T10:30:35;10.50;70.60
20432;DHT22;10375;49.136;10.366;2023-04-05T10:33:34;11.00;66.30
20432;DHT22;10375;49.136;10.366;2023-04-05T10:42:27;10.10;70.50
20432;DHT22;10375;49.136;10.366;2023-04-05T10:45:06;10.10;70.50
20432;DHT22;10375;49.136;10.366;2023-04-05T10:47:42;10.00;70.00
20432;DHT22;10375;49.136;10.366;2023-04-05T10:50:14;10.00;70.10
20432;DHT22;10375;49.136;10.366;2023-04-05T10:52:43;10.10;67.10
20432;DHT22;10375;49.136;10.366;2023-04-05T10:55:11;10.70;70.20
20432;DHT22;10375;49.136;10.366;2023-04-05T10:57:39;11.60;68.30
20432;DHT22;10375;49.136;10.366;2023-04-05T11:00:07;12.40;64.00
20432;DHT22;10375;49.136;10.366;2023-04-05T11:02:36;12.50;62.50
20432;DHT22;10375;49.136;10.366;2023-04-05T11:05:04;12.90;65.30
20432;DHT22;10375;49.136;10.366;2023-04-05T11:07:44;12.80;61.70
20432;DHT22;10375;49.136;10.366;2023-04-05T11:10:18;11.00;64.10
20432;DHT22;10375;49.136;10.366;2023-04-05T11:20:49;8.20;72.60
20432;DHT22;10375;49.136;10.366;2023-04-05T11:23:19;8.20;72.80
20432;DHT22;10375;49.136;10.366;2023-04-05T11:26:04;8.50;73.50
20432;DHT22;10375;49.136;10.366;2023-04-05T11:28:36;8.70;68.30
20432;DHT22;10375;49.136;10.366;2023-04-05T11:31:12;8.70;69.40
20432;DHT22;10375;49.136;10.366;2023-04-05T11:36:38;8.60;70.30
20432;DHT22;10375;49.136;10.366;2023-04-05T11:44:22;8.90;69.00
20432;DHT22;10375;49.136;10.366;2023-04-05T11:46:53;9.10;71.50
20432;DHT22;10375;49.136;10.366;2023-04-05T11:49:22;9.20;70.10
20432;DHT22;10375;49.136;10.366;2023-04-05T11:51:52;9.30;69.00
20432;DHT22;10375;49.136;10.366;2023-04-05T11:54:30;9.10;70.50
20432;DHT22;10375;49.136;10.366;2023-04-05T11:56:57;8.80;70.20
20432;DHT22;10375;49.136;10.366;2023-04-05T11:59:30;8.70;73.20
20432;DHT22;10375;49.136;10.366;2023-04-05T12:02:03;8.80;71.00
20432;DHT22;10375;49.136;10.366;2023-04-05T12:04:35;9.30;69.60
20432;DHT22;10375;49.136;10.366;2023-04-05T12:07:16;10.40;68.10
20432;DHT22;10375;49.136;10.366;2023-04-05T12:10:07;10.80;65.30
20432;DHT22;10375;49.136;10.366;2023-04-05T12:12:40;10.50;64.60
20432;DHT22;10375;49.136;10.366;2023-04-05T12:15:09;10.50;66.60
20432;DHT22;10375;49.136;10.366;2023-04-05T12:20:09;10.70;63.50
20432;DHT22;10375;49.136;10.366;2023-04-05T12:22:37;11.00;66.60
20432;DHT22;10375;49.136;10.366;2023-04-05T12:25:06;11.00;64.30
20432;DHT22;10375;49.136;10.366;2023-04-05T12:27:33;11.20;67.30
20432;DHT22;10375;49.136;10.366;2023-04-05T12:30:20;11.90;66.10
20432;DHT22;10375;49.136;10.366;2023-04-05T12:35:20;12.90;66.60
20432;DHT22;10375;49.136;10.366;2023-04-05T12:37:49;13.00;61.70
20432;DHT22;10375;49.136;10.366;2023-04-05T12:40:21;12.60;60.80
20432;DHT22;10375;49.136;10.366;2023-04-05T12:42:49;12.50;62.30
20432;DHT22;10375;49.136;10.366;2023-04-05T12:45:16;12.30;60.10
20432;DHT22;10375;49.136;10.366;2023-04-05T12:47:59;11.80;66.80
20432;DHT22;10375;49.136;10.366;2023-04-05T12:50:29;11.30;62.30
20432;DHT22;10375;49.136;10.366;2023-04-05T12:52:57;11.00;67.30
20432;DHT22;10375;49.136;10.366;2023-04-05T12:55:26;11.30;64.60
20432;DHT22;10375;49.136;10.366;2023-04-05T12:57:58;11.40;60.80
20432;DHT22;10375;49.136;10.366;2023-04-05T13:00:27;11.30;67.60
20432;DHT22;10375;49.136;10.366;2023-04-05T13:02:56;11.20;68.20
20432;DHT22;10375;49.136;10.366;2023-04-05T13:05:26;11.30;64.80
20432;DHT22;10375;49.136;10.366;2023-04-05T13:07:53;11.80;63.00
20432;DHT22;10375;49.136;10.366;2023-04-05T13:10:22;12.10;59.80
20432;DHT22;10375;49.136;10.366;2023-04-05T13:12:50;12.20;66.10
20432;DHT22;10375;49.136;10.366;2023-04-05T13:15:17;12.50;64.40
20432;DHT22;10375;49.136;10.366;2023-04-05T13:17:45;12.80;61.60
20432;DHT22;10375;49.136;10.366;2023-04-05T13:20:16;12.60;59.70
20432;DHT22;10375;49.136;10.366;2023-04-05T13:22:44;11.80;60.50
20432;DHT22;10375;49.136;10.366;2023-04-05T13:25:13;11.20;62.40
20432;DHT22;10375;49.136;10.366;2023-04-05T13:27:41;10.80;62.20
20432;DHT22;10375;49.136;10.366;2023-04-05T13:30:09;11.00;66.40
20432;DHT22;10375;49.136;10.366;2023-04-05T13:32:36;11.20;65.50
20432;DHT22;10375;49.136;10.366;2023-04-05T13:35:03;11.50;64.60
20432;DHT22;10375;49.136;10.366;2023-04-05T13:37:31;11.60;66.80
20432;DHT22;10375;49.136;10.366;2023-04-05T13:39:58;11.50;66.60
20432;DHT22;10375;49.136;10.366;2023-04-05T13:42:26;11.30;66.40
20432;DHT22;10375;49.136;10.366;2023-04-05T13:44:53;11.20;65.70
20432;DHT22;10375;49.136;10.366;2023-04-05T13:47:20;11.00;67.10
20432;DHT22;10375;49.136;10.366;2023-04-05T13:49:47;10.80;69.00
20432;DHT22;10375;49.136;10.366;2023-04-05T13:52:14;10.60;69.10
20432;DHT22;10375;49.136;10.366;2023-04-05T13:54:43;10.50;70.10
20432;DHT22;10375;49.136;10.366;2023-04-05T13:57:10;10.40;70.10
20432;DHT22;10375;49.136;10.366;2023-04-05T13:59:37;10.30;68.90
20432;DHT22;10375;49.136;10.366;2023-04-05T14:02:04;10.30;68.60
20432;DHT22;10375;49.136;10.366;2023-04-05T14:04:31;10.50;69.60
20432;DHT22;10375;49.136;10.366;2023-04-05T14:06:59;10.50;69.60
20432;DHT22;10375;49.136;10.366;2023-04-05T14:09:26;10.60;69.40
20432;DHT22;10375;49.136;10.366;2023-04-05T14:11:53;10.50;68.80
20432;DHT22;10375;49.136;10.366;2023-04-05T14:14:20;10.40;69.50
20432;DHT22;10375;49.136;10.366;2023-04-05T14:16:48;10.20;71.10
20432;DHT22;10375;49.136;10.366;2023-04-05T14:19:15;10.20;71.30
20432;DHT22;10375;49.136;10.366;2023-04-05T14:21:42;10.00;69.30
20432;DHT22;10375;49.136;10.366;2023-04-05T14:24:09;9.90;68.00
20432;DHT22;10375;49.136;10.366;2023-04-05T14:26:37;10.10;67.40
20432;DHT22;10375;49.136;10.366;2023-04-05T14:29:04;10.40;69.60
20432;DHT22;10375;49.136;10.366;2023-04-05T14:31:31;10.70;66.40
20432;DHT22;10375;49.136;10.366;2023-04-05T14:33:58;10.50;63.00
20432;DHT22;10375;49.136;10.366;2023-04-05T14:36:25;10.60;68.20
20432;DHT22;10375;49.136;10.366;2023-04-05T14:38:52;10.70;69.00
20432;DHT22;10375;49.136;10.366;2023-04-05T14:41:19;10.80;66.40
20432;DHT22;10375;49.136;10.366;2023-04-05T14:43:46;11.00;66.00
20432;DHT22;10375;49.136;10.366;2023-04-05T14:46:13;11.10;67.00
20432;DHT22;10375;49.136;10.366;2023-04-05T14:48:41;11.20;63.80
20432;DHT22;10375;49.136;10.366;2023-04-05T14:51:08;11.50;62.50
20432;DHT22;10375;49.136;10.366;2023-04-05T14:53:35;11.80;63.60
20432;DHT22;10375;49.136;10.366;2023-04-05T14:56:02;11.90;63.80
20432;DHT22;10375;49.136;10.366;2023-04-05T14:58:30;11.90;66.60
20432;DHT22;10375;49.136;10.366;2023-04-05T15:00:59;12.20;65.10
20432;DHT22;10375;49.136;10.366;2023-04-05T15:03:26;12.20;65.10
20432;DHT22;10375;49.136;10.366;2023-04-05T15:05:53;11.80;62.30
20432;DHT22;10375;49.136;10.366;2023-04-05T15:08:21;11.70;65.30
20432;DHT22;10375;49.136;10.366;2023-04-05T15:10:48;11.80;64.40
20432;DHT22;10375;49.136;10.366;2023-04-05T15:13:15;11.90;62.00
20432;DHT22;10375;49.136;10.366;2023-04-05T15:15:45;12.00;62.40
20432;DHT22;10375;49.136;10.366;2023-04-05T15:18:12;11.90;63.30
20432;DHT22;10375;49.136;10.366;2023-04-05T15:20:39;11.90;65.10
20432;DHT22;10375;49.136;10.366;2023-04-05T15:23:07;12.00;64.50
20432;DHT22;10375;49.136;10.366;2023-04-05T15:25:34;12.00;60.20
20432;DHT22;10375;49.136;10.366;2023-04-05T15:28:01;11.70;60.80
20432;DHT22;10375;49.136;10.366;2023-04-05T15:30:32;11.40;59.90
20432;DHT22;10375;49.136;10.366;2023-04-05T15:32:59;11.30;63.70
20432;DHT22;10375;49.136;10.366;2023-04-05T15:35:27;11.30;60.50
20432;DHT22;10375;49.136;10.366;2023-04-05T15:37:54;11.00;61.30
20432;DHT22;10375;49.136;10.366;2023-04-05T15:40:21;10.80;64.70
20432;DHT22;10375;49.136;10.366;2023-04-05T15:42:48;10.60;62.00
20432;DHT22;10375;49.136;10.366;2023-04-05T15:45:15;10.10;63.80
20432;DHT22;10375;49.136;10.366;2023-04-05T15:47:42;10.00;64.60
20432;DHT22;10375;49.136;10.366;2023-04-05T15:50:09;10.10;68.00
20432;DHT22;10375;49.136;10.366;2023-04-05T15:52:37;10.30;68.20
20432;DHT22;10375;49.136;10.366;2023-04-05T15:55:04;10.30;68.00
20432;DHT22;10375;49.136;10.366;2023-04-05T15:57:31;10.10;68.50
20432;DHT22;10375;49.136;10.366;2023-04-05T15:59:58;9.90;68.60
20432;DHT22;10375;49.136;10.366;2023-04-05T16:02:25;9.80;67.60
20432;DHT22;10375;49.136;10.366;2023-04-05T16:04:53;9.50;68.30
20432;DHT22;10375;49.136;10.366;2023-04-05T16:07:20;9.40;68.70
20432;DHT22;10375;49.136;10.366;2023-04-05T16:09:47;9.20;68.90
20432;DHT22;10375;49.136;10.366;2023-04-05T16:12:14;9.30;73.00
20432;DHT22;10375;49.136;10.366;2023-04-05T16:14:41;9.50;73.50
20432;DHT22;10375;49.136;10.366;2023-04-05T16:17:08;9.60;71.70